Time;durP1;ratioP1;P1;durP2;ratioP2;P2;SDS_P1;SDS_P2;PMS_P1;PMS_P2;Temp;Humidity;BMP_temperature;BMP_pressure;BME280_temperature;BME280_humidity;BME280_pressure;Samples;Min_cycle;Max_cycle;Signal;HPM_P1;HPM_P2
2021/04/17 00:02:21;;;;;;;11.87;5.97;;;;;;;;;;6206621;23;20341;-89
2021/04/17 00:05:26;;;;;;;9.63;5.93;;;;;;;;;;6208072;23;20183;-92
2021/04/17 00:08:32;;;;;;;11.33;5.63;;;;;;;;;;6208320;23;20210;-89
2021/04/17 00:11:37;;;;;;;13.63;6.00;;;;;;;;;;6208667;23;20170;-89
2021/04/17 00:14:41;;;;;;;11.70;6.00;;;;;;;;;;6208577;23;20654;-89
2021/04/17 00:17:45;;;;;;;10.90;5.87;;;;;;;;;;6206839;23;20186;-89
2021/04/17 00:20:50;;;;;;;9.90;5.83;;;;;;;;;;6207803;23;20750;-89
2021/04/17 00:23:55;;;;;;;11.00;5.87;;;;;;;;;;6206818;23;20218;-89
2021/04/17 00:27:02;;;;;;;11.73;6.13;;;;;;;;;;6205742;23;20175;-88
2021/04/17 00:30:07;;;;;;;12.13;6.20;;;;;;;;;;6206524;23;20175;-88
2021/04/17 00:33:11;;;;;;;12.23;6.50;;;;;;;;;;6203402;23;20199;-91
2021/04/17 00:36:16;;;;;;;11.80;6.00;;;;;;;;;;6205347;23;20167;-90
2021/04/17 00:39:22;;;;;;;16.33;6.27;;;;;;;;;;6206892;23;20214;-88
2021/04/17 00:42:27;;;;;;;8.57;5.40;;;;;;;;;;6208120;23;20303;-90
2021/04/17 00:45:32;;;;;;;12.40;6.57;;;;;;;;;;6205645;23;20540;-88
2021/04/17 00:48:37;;;;;;;10.17;5.73;;;;;;;;;;6206560;23;20171;-88
2021/04/17 00:51:42;;;;;;;10.70;5.97;;;;;;;;;;6207063;23;20171;-88
2021/04/17 00:54:47;;;;;;;11.67;6.17;;;;;;;;;;6205640;23;20167;-90
2021/04/17 00:57:51;;;;;;;10.43;6.03;;;;;;;;;;6207137;23;20804;-91
2021/04/17 01:00:56;;;;;;;10.80;6.07;;;;;;;;;;6208398;23;20178;-91
2021/04/17 01:04:05;;;;;;;15.70;6.67;;;;;;;;;;6205578;23;20167;-90
2021/04/17 01:07:12;;;;;;;9.87;6.10;;;;;;;;;;6205573;23;20246;-90
2021/04/17 01:10:20;;;;;;;11.57;6.00;;;;;;;;;;6206346;23;20227;-88
2021/04/17 01:13:25;;;;;;;10.27;6.23;;;;;;;;;;6206859;23;20222;-90
2021/04/17 01:16:30;;;;;;;10.20;6.03;;;;;;;;;;6206370;22;20195;-90
2021/04/17 01:19:43;;;;;;;13.00;6.43;;;;;;;;;;6205450;23;20175;-90
2021/04/17 01:22:51;;;;;;;11.63;6.27;;;;;;;;;;6205730;23;20551;-91
2021/04/17 01:26:00;;;;;;;14.27;6.53;;;;;;;;;;6207323;23;20237;-90
2021/04/17 01:29:04;;;;;;;14.70;6.60;;;;;;;;;;6206659;23;20218;-90
2021/04/17 01:32:11;;;;;;;10.03;5.57;;;;;;;;;;6206967;23;20191;-91
2021/04/17 01:35:18;;;;;;;14.03;6.77;;;;;;;;;;6205329;23;20689;-90
2021/04/17 01:38:24;;;;;;;19.83;7.30;;;;;;;;;;6205816;23;20198;-90
2021/04/17 01:41:31;;;;;;;14.03;6.67;;;;;;;;;;6206169;23;20223;-90
2021/04/17 01:44:37;;;;;;;10.77;6.37;;;;;;;;;;6204856;23;20291;-91
2021/04/17 01:47:41;;;;;;;12.47;6.33;;;;;;;;;;6205841;23;20171;-91
2021/04/17 01:50:46;;;;;;;12.70;7.10;;;;;;;;;;6205303;23;20225;-89
2021/04/17 01:53:51;;;;;;;26.23;9.70;;;;;;;;;;6205507;23;20191;-91
2021/04/17 01:56:58;;;;;;;43.73;13.70;;;;;;;;;;6205327;23;20175;-91
2021/04/17 02:00:02;;;;;;;38.00;12.90;;;;;;;;;;6222984;23;20166;-91
2021/04/17 02:03:17;;;;;;;47.50;16.10;;;;;;;;;;6224559;23;20166;-91
2021/04/17 02:06:22;;;;;;;39.57;14.13;;;;;;;;;;6207649;22;20209;-90
2021/04/17 02:09:27;;;;;;;35.47;12.60;;;;;;;;;;6210046;23;20166;-91
2021/04/17 02:12:32;;;;;;;40.53;14.37;;;;;;;;;;6209877;23;20198;-90
2021/04/17 02:15:37;;;;;;;32.37;12.40;;;;;;;;;;6208879;23;20173;-90
2021/04/17 02:18:48;;;;;;;21.23;9.53;;;;;;;;;;6210438;23;20195;-90
2021/04/17 02:21:52;;;;;;;18.30;8.70;;;;;;;;;;6209598;23;20622;-91
2021/04/17 02:24:57;;;;;;;14.50;7.40;;;;;;;;;;6208930;23;20183;-90
2021/04/17 02:28:03;;;;;;;20.57;8.53;;;;;;;;;;6210493;23;20619;-90
2021/04/17 02:31:07;;;;;;;16.90;8.00;;;;;;;;;;6210046;23;20216;-90
2021/04/17 02:34:11;;;;;;;16.90;7.90;;;;;;;;;;6209954;23;20171;-91
2021/04/17 02:37:16;;;;;;;17.00;8.27;;;;;;;;;;6208471;23;20634;-89
2021/04/17 02:40:21;;;;;;;17.30;7.77;;;;;;;;;;6209518;23;20347;-90
2021/04/17 02:43:26;;;;;;;18.97;8.53;;;;;;;;;;6209104;23;20218;-90
2021/04/17 02:46:31;;;;;;;23.67;9.80;;;;;;;;;;6210627;23;20174;-90
2021/04/17 02:49:35;;;;;;;26.53;10.10;;;;;;;;;;6210741;23;20170;-90
2021/04/17 02:52:40;;;;;;;21.73;9.77;;;;;;;;;;6210603;23;20310;-89
2021/04/17 02:55:45;;;;;;;20.63;9.03;;;;;;;;;;6208991;23;20247;-90
2021/04/17 02:58:51;;;;;;;16.87;8.10;;;;;;;;;;6210819;23;20175;-90
2021/04/17 03:01:55;;;;;;;17.57;8.03;;;;;;;;;;6210136;23;20784;-90
2021/04/17 03:05:00;;;;;;;21.97;8.57;;;;;;;;;;6211579;23;20622;-91
2021/04/17 03:08:04;;;;;;;23.40;9.33;;;;;;;;;;6210776;23;20182;-90
2021/04/17 03:11:09;;;;;;;23.07;9.37;;;;;;;;;;6210720;23;20175;-90
2021/04/17 03:14:14;;;;;;;25.13;9.53;;;;;;;;;;6210492;23;20163;-90
2021/04/17 03:17:19;;;;;;;22.03;8.87;;;;;;;;;;6208882;23;20234;-90
2021/04/17 03:20:23;;;;;;;21.60;9.10;;;;;;;;;;6209048;23;20195;-90
2021/04/17 03:23:27;;;;;;;18.20;8.63;;;;;;;;;;6208402;23;20613;-91
2021/04/17 03:26:32;;;;;;;19.30;8.53;;;;;;;;;;6208808;23;20190;-90
2021/04/17 03:29:38;;;;;;;15.60;7.43;;;;;;;;;;6207609;23;20650;-90
2021/04/17 03:32:43;;;;;;;17.67;8.27;;;;;;;;;;6207867;23;20191;-90
2021/04/17 03:35:47;;;;;;;18.03;8.80;;;;;;;;;;6208224;22;20163;-90
2021/04/17 03:38:53;;;;;;;20.33;8.67;;;;;;;;;;6207085;23;20190;-90
2021/04/17 03:41:58;;;;;;;18.87;8.50;;;;;;;;;;6207731;23;20170;-90
2021/04/17 03:45:04;;;;;;;19.23;9.23;;;;;;;;;;6207740;23;20170;-91
2021/04/17 03:48:11;;;;;;;17.17;8.67;;;;;;;;;;6208233;23;20186;-90
2021/04/17 03:51:16;;;;;;;17.37;8.47;;;;;;;;;;6207971;23;20167;-90
2021/04/17 03:54:20;;;;;;;14.73;7.50;;;;;;;;;;6208397;23;20498;-90
2021/04/17 03:57:25;;;;;;;16.97;8.07;;;;;;;;;;6206965;23;20235;-91
2021/04/17 04:00:31;;;;;;;16.27;7.17;;;;;;;;;;6208041;23;20218;-90
2021/04/17 04:03:41;;;;;;;15.63;8.20;;;;;;;;;;6207867;22;20175;-90
2021/04/17 04:06:46;;;;;;;14.60;8.13;;;;;;;;;;6209083;23;20171;-90
2021/04/17 04:09:50;;;;;;;15.73;8.00;;;;;;;;;;6207672;23;20183;-90
2021/04/17 04:12:54;;;;;;;14.47;7.30;;;;;;;;;;6205998;23;20190;-90
2021/04/17 04:16:00;;;;;;;15.97;8.10;;;;;;;;;;6207307;23;20179;-90
2021/04/17 04:19:05;;;;;;;18.20;8.37;;;;;;;;;;6207976;23;20211;-90
2021/04/17 04:22:09;;;;;;;15.60;8.17;;;;;;;;;;6207289;23;20647;-91
2021/04/17 04:25:13;;;;;;;16.67;8.07;;;;;;;;;;6206462;23;20214;-91
2021/04/17 04:28:18;;;;;;;15.53;7.60;;;;;;;;;;6206791;23;20508;-89
2021/04/17 04:31:23;;;;;;;12.47;7.00;;;;;;;;;;6206594;23;20155;-90
2021/04/17 04:34:27;;;;;;;20.80;7.47;;;;;;;;;;6208075;22;20163;-91
2021/04/17 04:37:32;;;;;;;14.07;7.77;;;;;;;;;;6209063;23;20287;-91
2021/04/17 04:40:36;;;;;;;13.50;7.73;;;;;;;;;;6209114;23;20175;-90
2021/04/17 04:43:41;;;;;;;15.77;7.07;;;;;;;;;;6207457;23;20167;-89
2021/04/17 04:46:46;;;;;;;13.17;7.43;;;;;;;;;;6207545;23;20191;-91
2021/04/17 04:49:51;;;;;;;14.23;7.80;;;;;;;;;;6207644;23;20194;-90
2021/04/17 04:52:56;;;;;;;13.03;7.53;;;;;;;;;;6207839;23;20237;-91
2021/04/17 04:56:00;;;;;;;13.27;7.40;;;;;;;;;;6207839;23;20171;-91
2021/04/17 04:59:04;;;;;;;13.63;7.50;;;;;;;;;;6207314;23;20175;-90
2021/04/17 05:02:09;;;;;;;12.73;7.00;;;;;;;;;;6207054;23;20170;-89
2021/04/17 05:05:14;;;;;;;13.37;7.70;;;;;;;;;;6206501;23;20183;-90
2021/04/17 05:08:19;;;;;;;15.40;7.70;;;;;;;;;;6206837;23;20294;-90
2021/04/17 05:11:24;;;;;;;16.30;8.47;;;;;;;;;;6209137;23;20194;-90
2021/04/17 05:14:28;;;;;;;13.73;7.53;;;;;;;;;;6207760;23;20167;-90
2021/04/17 05:17:34;;;;;;;16.47;7.57;;;;;;;;;;6209271;23;20241;-91
2021/04/17 05:20:38;;;;;;;12.70;7.57;;;;;;;;;;6208518;23;20239;-91
2021/04/17 05:23:43;;;;;;;15.07;8.10;;;;;;;;;;6208754;22;20167;-89
2021/04/17 05:26:48;;;;;;;14.93;7.57;;;;;;;;;;6209208;23;20226;-90
2021/04/17 05:29:52;;;;;;;17.10;7.83;;;;;;;;;;6211727;23;20166;-90
2021/04/17 05:32:58;;;;;;;13.30;8.17;;;;;;;;;;6208720;23;20190;-89
2021/04/17 05:36:03;;;;;;;20.40;8.30;;;;;;;;;;6208178;23;20197;-89
2021/04/17 05:39:07;;;;;;;13.60;7.77;;;;;;;;;;6208265;23;20210;-90
2021/04/17 05:42:12;;;;;;;14.70;7.77;;;;;;;;;;6206101;23;20665;-89
2021/04/17 05:45:16;;;;;;;15.43;8.20;;;;;;;;;;6208806;23;20162;-89
2021/04/17 05:48:22;;;;;;;15.23;7.60;;;;;;;;;;6208253;23;20546;-89
2021/04/17 05:51:27;;;;;;;14.40;7.87;;;;;;;;;;6210099;23;20191;-89
2021/04/17 05:54:31;;;;;;;14.23;7.50;;;;;;;;;;6209901;22;20171;-89
2021/04/17 05:57:36;;;;;;;12.17;7.40;;;;;;;;;;6211719;23;20194;-91
2021/04/17 06:00:49;;;;;;;12.37;7.23;;;;;;;;;;6211648;23;20171;-89
2021/04/17 06:03:55;;;;;;;13.50;7.50;;;;;;;;;;6211775;23;20220;-90
2021/04/17 06:07:03;;;;;;;15.70;8.00;;;;;;;;;;6208606;23;20175;-90
2021/04/17 06:10:09;;;;;;;14.30;7.70;;;;;;;;;;6211109;23;20179;-89
2021/04/17 06:13:13;;;;;;;15.37;8.83;;;;;;;;;;6212015;23;20214;-89
2021/04/17 06:16:18;;;;;;;16.47;9.13;;;;;;;;;;6212018;22;20154;-89
2021/04/17 06:19:27;;;;;;;15.73;9.00;;;;;;;;;;6217512;23;20199;-91
2021/04/17 06:25:53;;;;;;;17.43;9.40;;;;;;;;;;6214476;23;20237;-89
2021/04/17 06:28:58;;;;;;;19.30;9.03;;;;;;;;;;6215835;23;20171;-91
2021/04/17 06:32:03;;;;;;;18.33;9.67;;;;;;;;;;6217274;23;20175;-89
2021/04/17 06:39:10;;;;;;;18.20;9.33;;;;;;;;;;6235398;23;20194;-89
2021/04/17 06:42:17;;;;;;;19.87;10.50;;;;;;;;;;6214975;23;20162;-89
2021/04/17 06:45:26;;;;;;;18.50;10.03;;;;;;;;;;6214564;23;20183;-90
2021/04/17 06:48:34;;;;;;;24.67;10.93;;;;;;;;;;6232825;23;20243;-91
2021/04/17 06:51:43;;;;;;;21.03;10.20;;;;;;;;;;6217498;23;20546;-89
2021/04/17 06:54:49;;;;;;;21.53;10.60;;;;;;;;;;6218664;23;20650;-90
2021/04/17 06:57:58;;;;;;;20.30;10.00;;;;;;;;;;6218488;23;20170;-90
2021/04/17 07:01:04;;;;;;;22.07;10.30;;;;;;;;;;6218468;22;20171;-91
2021/04/17 07:04:12;;;;;;;19.00;9.70;;;;;;;;;;6219207;23;20155;-89
2021/04/17 07:07:22;;;;;;;16.87;9.83;;;;;;;;;;6219045;23;20240;-88
2021/04/17 07:10:32;;;;;;;17.13;10.23;;;;;;;;;;6218393;23;20195;-90
2021/04/17 07:14:02;;;;;;;17.87;10.23;;;;;;;;;;6218141;23;20218;-89
2021/04/17 07:17:09;;;;;;;20.70;10.20;;;;;;;;;;6233182;23;20191;-90
2021/04/17 07:20:16;;;;;;;22.83;10.40;;;;;;;;;;6215651;23;20191;-91
2021/04/17 07:23:38;;;;;;;19.50;10.10;;;;;;;;;;6216195;23;20214;-89
2021/04/17 07:26:49;;;;;;;18.87;10.20;;;;;;;;;;6216185;23;20199;-89
2021/04/17 07:29:59;;;;;;;21.90;10.60;;;;;;;;;;6230242;23;20175;-89
2021/04/17 07:33:11;;;;;;;17.60;10.20;;;;;;;;;;6217296;23;20239;-90
2021/04/17 07:36:16;;;;;;;17.80;10.03;;;;;;;;;;6213357;23;20246;-90
2021/04/17 07:39:29;;;;;;;21.13;10.00;;;;;;;;;;6212174;23;20195;-89
2021/04/17 07:42:39;;;;;;;20.20;9.70;;;;;;;;;;6229661;23;20622;-89
2021/04/17 07:45:45;;;;;;;19.03;9.23;;;;;;;;;;6213810;22;20160;-89
2021/04/17 07:48:52;;;;;;;19.80;8.80;;;;;;;;;;6210300;23;20190;-87
2021/04/17 07:52:01;;;;;;;16.73;9.30;;;;;;;;;;6207878;23;20194;-88
2021/04/17 07:55:07;;;;;;;17.80;9.13;;;;;;;;;;6207882;23;20167;-88
2021/04/17 07:58:12;;;;;;;20.33;9.73;;;;;;;;;;6210026;23;20186;-88
2021/04/17 08:01:19;;;;;;;19.77;9.33;;;;;;;;;;6208955;23;20661;-88
2021/04/17 08:04:27;;;;;;;15.17;9.27;;;;;;;;;;6213465;23;20241;-88
2021/04/17 08:07:34;;;;;;;19.70;9.30;;;;;;;;;;6210082;23;20186;-89
2021/04/17 08:10:40;;;;;;;20.70;8.97;;;;;;;;;;6209463;23;20244;-88
2021/04/17 08:13:44;;;;;;;17.13;9.83;;;;;;;;;;6209362;23;20306;-91
2021/04/17 08:16:51;;;;;;;17.07;9.43;;;;;;;;;;6209468;23;20251;-90
2021/04/17 08:19:57;;;;;;;19.33;9.57;;;;;;;;;;6209920;23;20211;-89
2021/04/17 08:23:02;;;;;;;18.37;9.77;;;;;;;;;;6208236;23;20499;-89
2021/04/17 08:26:07;;;;;;;17.70;10.00;;;;;;;;;;6209699;23;20175;-89
2021/04/17 08:29:12;;;;;;;16.43;9.37;;;;;;;;;;6210928;23;20206;-89
2021/04/17 08:32:31;;;;;;;17.53;9.93;;;;;;;;;;6209478;23;20171;-91
2021/04/17 08:35:38;;;;;;;16.40;9.50;;;;;;;;;;6207582;23;20183;-88
2021/04/17 08:38:43;;;;;;;19.33;10.13;;;;;;;;;;6209586;23;20174;-90
2021/04/17 08:41:48;;;;;;;19.70;10.03;;;;;;;;;;6208470;23;20229;-87
2021/04/17 08:44:53;;;;;;;18.10;9.70;;;;;;;;;;6207840;23;20163;-89
2021/04/17 08:47:59;;;;;;;19.83;11.00;;;;;;;;;;6209219;23;20190;-89
2021/04/17 08:51:25;;;;;;;15.30;8.40;;;;;;;;;;6209340;23;20673;-89
2021/04/17 08:54:30;;;;;;;19.33;9.40;;;;;;;;;;6206810;23;20266;-89
2021/04/17 08:57:34;;;;;;;21.47;10.03;;;;;;;;;;6207347;23;20677;-89
2021/04/17 09:00:42;;;;;;;16.53;9.17;;;;;;;;;;6207711;23;20167;-88
2021/04/17 09:03:48;;;;;;;16.67;9.00;;;;;;;;;;6207806;23;20649;-88
2021/04/17 09:06:53;;;;;;;14.17;8.80;;;;;;;;;;6205960;23;20169;-87
2021/04/17 09:10:17;;;;;;;12.47;7.50;;;;;;;;;;6204908;23;20223;-89
2021/04/17 09:13:34;;;;;;;16.37;8.43;;;;;;;;;;6205619;23;20572;-89
2021/04/17 09:16:39;;;;;;;14.70;8.53;;;;;;;;;;6204750;23;20207;-88
2021/04/17 09:20:01;;;;;;;18.30;8.70;;;;;;;;;;6207481;23;20254;-89
2021/04/17 09:23:07;;;;;;;17.23;8.07;;;;;;;;;;6208701;23;20610;-88
2021/04/17 09:26:33;;;;;;;16.53;8.50;;;;;;;;;;6208362;23;20175;-89
2021/04/17 09:29:38;;;;;;;18.23;10.23;;;;;;;;;;6209916;23;20167;-90
2021/04/17 09:32:44;;;;;;;15.83;8.57;;;;;;;;;;6214256;22;20195;-90
2021/04/17 09:35:48;;;;;;;14.80;7.95;;;;;;;;;;6207041;23;20190;-89
2021/04/17 09:38:53;;;;;;;13.97;7.83;;;;;;;;;;6206357;23;20198;-90
2021/04/17 09:41:59;;;;;;;18.43;8.50;;;;;;;;;;6205492;23;20171;-88
2021/04/17 09:45:05;;;;;;;18.43;8.33;;;;;;;;;;6205094;23;20186;-88
2021/04/17 09:48:11;;;;;;;16.60;8.70;;;;;;;;;;6206548;23;20171;-88
2021/04/17 09:51:19;;;;;;;16.47;8.50;;;;;;;;;;6207299;23;20183;-88
2021/04/17 09:54:27;;;;;;;17.03;9.30;;;;;;;;;;6205565;23;20199;-88
2021/04/17 09:57:32;;;;;;;15.23;8.47;;;;;;;;;;6206777;23;20198;-89
2021/04/17 10:00:38;;;;;;;16.57;9.30;;;;;;;;;;6206224;23;20671;-88
2021/04/17 10:03:43;;;;;;;18.23;7.83;;;;;;;;;;6207102;23;20190;-88
2021/04/17 10:06:55;;;;;;;18.50;9.33;;;;;;;;;;6206342;23;20206;-89
2021/04/17 10:10:01;;;;;;;18.30;9.97;;;;;;;;;;6203877;23;20599;-89
2021/04/17 10:13:06;;;;;;;19.03;9.33;;;;;;;;;;6205174;23;20178;-89
2021/04/17 10:16:12;;;;;;;17.60;9.23;;;;;;;;;;6205806;23;20253;-89
2021/04/17 10:19:17;;;;;;;18.33;9.33;;;;;;;;;;6208884;23;20167;-90
2021/04/17 10:22:22;;;;;;;16.40;9.23;;;;;;;;;;6208882;23;20194;-89
2021/04/17 10:25:34;;;;;;;16.23;8.80;;;;;;;;;;6210246;23;20171;-88
2021/04/17 10:28:39;;;;;;;16.77;9.33;;;;;;;;;;6211972;23;20179;-88
2021/04/17 10:31:44;;;;;;;24.10;10.40;;;;;;;;;;6214526;23;20171;-89
2021/04/17 10:34:50;;;;;;;21.13;10.00;;;;;;;;;;6215593;23;20179;-88
2021/04/17 10:37:55;;;;;;;18.50;10.27;;;;;;;;;;6212225;23;20163;-89
2021/04/17 10:41:02;;;;;;;16.90;9.83;;;;;;;;;;6208923;23;20203;-89
2021/04/17 10:44:08;;;;;;;21.23;10.50;;;;;;;;;;6211385;23;20614;-89
2021/04/17 10:47:15;;;;;;;19.00;9.80;;;;;;;;;;6208968;23;20167;-91
2021/04/17 10:50:22;;;;;;;24.07;12.53;;;;;;;;;;6207869;23;20270;-88
2021/04/17 10:53:28;;;;;;;17.77;10.47;;;;;;;;;;6208996;23;20526;-90
2021/04/17 10:56:35;;;;;;;16.90;9.23;;;;;;;;;;6208344;23;20179;-88
2021/04/17 10:59:53;;;;;;;12.60;8.37;;;;;;;;;;6210616;23;20167;-86
2021/04/17 11:02:58;;;;;;;15.23;9.33;;;;;;;;;;6209682;23;20171;-88
2021/04/17 11:06:12;;;;;;;16.77;8.70;;;;;;;;;;6209677;23;20171;-88
2021/04/17 11:09:18;;;;;;;23.73;9.80;;;;;;;;;;6209970;23;20175;-88
2021/04/17 11:12:25;;;;;;;16.53;9.53;;;;;;;;;;6206399;23;20175;-87
2021/04/17 11:15:29;;;;;;;14.87;9.20;;;;;;;;;;6207839;23;20167;-87
2021/04/17 11:18:36;;;;;;;20.47;10.23;;;;;;;;;;6210719;23;20194;-87
2021/04/17 11:21:42;;;;;;;14.77;8.20;;;;;;;;;;6210897;22;20174;-90
2021/04/17 11:25:02;;;;;;;18.73;9.03;;;;;;;;;;6211028;23;20263;-89
2021/04/17 11:28:08;;;;;;;15.83;9.40;;;;;;;;;;6209388;23;20168;-88
2021/04/17 11:31:16;;;;;;;17.70;9.40;;;;;;;;;;6211680;23;20195;-90
2021/04/17 11:34:46;;;;;;;117.43;34.30;;;;;;;;;;6211903;23;20354;-89
2021/04/17 11:37:52;;;;;;;27.25;11.52;;;;;;;;;;6213541;23;20178;-88
2021/04/17 11:40:57;;;;;;;20.37;9.43;;;;;;;;;;6213114;23;20175;-90
2021/04/17 11:44:06;;;;;;;15.23;9.27;;;;;;;;;;6212724;23;20215;-90
2021/04/17 11:47:11;;;;;;;16.97;9.60;;;;;;;;;;6212133;23;20171;-87
2021/04/17 11:50:16;;;;;;;18.80;9.27;;;;;;;;;;6208446;23;20172;-88
2021/04/17 11:53:21;;;;;;;16.63;8.63;;;;;;;;;;6208081;23;20205;-88
2021/04/17 11:56:25;;;;;;;16.03;9.37;;;;;;;;;;6207842;23;20170;-87
2021/04/17 11:59:31;;;;;;;17.97;9.60;;;;;;;;;;6207469;23;20224;-89
2021/04/17 12:02:36;;;;;;;15.93;9.40;;;;;;;;;;6207165;23;20218;-88
2021/04/17 12:05:41;;;;;;;16.47;9.17;;;;;;;;;;6206439;23;20248;-89
2021/04/17 12:08:46;;;;;;;16.97;9.97;;;;;;;;;;6206723;23;20247;-89
2021/04/17 12:11:50;;;;;;;17.63;9.30;;;;;;;;;;6207256;23;20171;-87
2021/04/17 12:14:56;;;;;;;14.82;9.15;;;;;;;;;;6207219;23;20195;-87
2021/04/17 12:18:01;;;;;;;16.02;8.68;;;;;;;;;;6209625;23;20183;-89
2021/04/17 12:21:06;;;;;;;20.00;9.60;;;;;;;;;;6206983;23;20167;-89
2021/04/17 12:24:11;;;;;;;15.70;9.98;;;;;;;;;;6205539;23;20191;-89
2021/04/17 12:27:16;;;;;;;17.38;9.73;;;;;;;;;;6204554;23;20222;-88
2021/04/17 12:30:22;;;;;;;16.02;9.48;;;;;;;;;;6206998;23;20238;-88
2021/04/17 12:33:28;;;;;;;17.90;9.35;;;;;;;;;;6226250;23;20186;-87
2021/04/17 12:36:39;;;;;;;20.55;9.43;;;;;;;;;;6215420;23;20174;-89
2021/04/17 12:39:44;;;;;;;16.75;8.88;;;;;;;;;;6235972;23;20196;-89
2021/04/17 12:42:49;;;;;;;18.23;9.27;;;;;;;;;;6213766;23;20187;-89
2021/04/17 12:49:14;;;;;;;16.13;9.23;;;;;;;;;;6218956;23;20614;-89
2021/04/17 12:52:19;;;;;;;15.25;8.75;;;;;;;;;;6219662;22;20155;-90
2021/04/17 12:55:31;;;;;;;14.00;8.38;;;;;;;;;;6219440;23;20167;-90
2021/04/17 12:58:39;;;;;;;13.90;8.27;;;;;;;;;;6221534;22;20167;-89
2021/04/17 13:01:51;;;;;;;15.32;8.77;;;;;;;;;;6220375;23;20179;-88
2021/04/17 13:04:57;;;;;;;21.38;9.95;;;;;;;;;;6218289;23;20179;-88
2021/04/17 13:08:02;;;;;;;17.75;8.80;;;;;;;;;;6219718;23;20183;-89
2021/04/17 13:11:07;;;;;;;23.05;9.50;;;;;;;;;;6219371;22;20225;-89
2021/04/17 13:14:12;;;;;;;15.05;9.00;;;;;;;;;;6211782;23;20254;-90
2021/04/17 13:17:18;;;;;;;13.30;8.40;;;;;;;;;;6211101;23;20175;-88
2021/04/17 13:20:23;;;;;;;17.60;8.60;;;;;;;;;;6210067;23;20171;-87
2021/04/17 13:23:28;;;;;;;18.05;8.95;;;;;;;;;;6220275;23;20167;-87
2021/04/17 13:26:33;;;;;;;14.38;8.45;;;;;;;;;;6216689;23;20182;-89
2021/04/17 13:29:42;;;;;;;14.43;8.40;;;;;;;;;;6216485;23;20214;-89
2021/04/17 13:32:49;;;;;;;17.65;8.70;;;;;;;;;;6210706;23;20654;-89
2021/04/17 13:35:54;;;;;;;14.05;8.45;;;;;;;;;;6216686;22;20171;-89
2021/04/17 13:38:59;;;;;;;15.60;8.95;;;;;;;;;;6220636;23;20218;-90
2021/04/17 13:42:04;;;;;;;18.67;9.32;;;;;;;;;;6218317;23;20190;-89
2021/04/17 13:45:10;;;;;;;18.08;9.32;;;;;;;;;;6211119;23;20163;-89
2021/04/17 13:48:18;;;;;;;17.25;8.88;;;;;;;;;;6209333;23;20170;-89
2021/04/17 13:51:23;;;;;;;14.55;8.38;;;;;;;;;;6208426;23;20235;-91
2021/04/17 13:54:30;;;;;;;14.52;7.88;;;;;;;;;;6209616;23;20239;-90
2021/04/17 13:57:34;;;;;;;15.25;8.25;;;;;;;;;;6210575;23;20194;-90
2021/04/17 14:00:41;;;;;;;12.25;7.05;;;;;;;;;;6210077;23;20243;-90
2021/04/17 14:03:47;;;;;;;16.52;8.45;;;;;;;;;;6212295;23;20194;-90
2021/04/17 14:06:52;;;;;;;14.57;7.82;;;;;;;;;;6209127;23;20217;-90
2021/04/17 14:09:57;;;;;;;15.52;8.02;;;;;;;;;;6209620;23;20155;-90
2021/04/17 14:13:02;;;;;;;15.98;8.90;;;;;;;;;;6205450;23;20175;-89
2021/04/17 14:16:09;;;;;;;14.77;8.27;;;;;;;;;;6206975;23;20170;-89
2021/04/17 14:19:15;;;;;;;16.40;8.63;;;;;;;;;;6207480;23;20174;-90
2021/04/17 14:22:20;;;;;;;19.75;9.52;;;;;;;;;;6206746;23;20179;-90
2021/04/17 14:25:26;;;;;;;12.00;7.80;;;;;;;;;;6211548;23;20171;-90
2021/04/17 14:28:32;;;;;;;14.82;8.65;;;;;;;;;;6213491;23;20210;-90
2021/04/17 14:31:37;;;;;;;13.18;7.50;;;;;;;;;;6214408;23;20170;-89
2021/04/17 14:34:46;;;;;;;16.33;8.02;;;;;;;;;;6214249;23;20195;-87
2021/04/17 14:37:51;;;;;;;12.32;7.60;;;;;;;;;;6210896;23;20166;-90
2021/04/17 14:40:59;;;;;;;16.05;7.97;;;;;;;;;;6215789;22;20226;-89
2021/04/17 14:44:11;;;;;;;12.45;7.82;;;;;;;;;;6214541;23;20355;-91
2021/04/17 14:47:15;;;;;;;12.98;7.75;;;;;;;;;;6213531;23;20245;-90
2021/04/17 14:50:21;;;;;;;11.00;6.35;;;;;;;;;;6209657;23;20168;-88
2021/04/17 14:53:26;;;;;;;15.60;8.35;;;;;;;;;;6210848;23;20196;-90
2021/04/17 14:56:31;;;;;;;17.05;8.73;;;;;;;;;;6209611;23;20191;-89
2021/04/17 14:59:36;;;;;;;24.88;11.13;;;;;;;;;;6209839;22;20171;-89
2021/04/17 15:02:40;;;;;;;23.38;10.35;;;;;;;;;;6211635;23;20163;-90
2021/04/17 15:05:46;;;;;;;19.42;10.57;;;;;;;;;;6209863;23;20507;-89
2021/04/17 15:08:51;;;;;;;16.42;8.55;;;;;;;;;;6210585;23;20167;-90
2021/04/17 15:11:59;;;;;;;20.13;9.30;;;;;;;;;;6207347;23;20163;-89
2021/04/17 15:15:05;;;;;;;22.50;12.17;;;;;;;;;;6207746;23;20178;-90
2021/04/17 15:18:10;;;;;;;15.30;8.20;;;;;;;;;;6207360;23;20191;-89
2021/04/17 15:21:17;;;;;;;14.03;8.47;;;;;;;;;;6210825;23;20171;-90
2021/04/17 15:24:22;;;;;;;15.07;7.93;;;;;;;;;;6211208;23;20178;-91
2021/04/17 15:27:27;;;;;;;18.40;8.27;;;;;;;;;;6209365;23;20685;-89
2021/04/17 15:30:32;;;;;;;17.87;8.53;;;;;;;;;;6209566;23;20182;-89
2021/04/17 15:33:37;;;;;;;27.70;9.10;;;;;;;;;;6207682;23;20202;-89
2021/04/17 15:36:45;;;;;;;16.90;9.13;;;;;;;;;;6206544;23;20176;-88
2021/04/17 15:39:50;;;;;;;15.40;7.90;;;;;;;;;;6178524;23;716706;-88
2021/04/17 15:42:55;;;;;;;16.20;8.33;;;;;;;;;;6227398;23;20179;-89
2021/04/17 15:46:00;;;;;;;17.53;8.47;;;;;;;;;;6207631;23;20166;-87
2021/04/17 15:49:05;;;;;;;17.83;8.43;;;;;;;;;;6210081;23;20163;-89
2021/04/17 15:52:11;;;;;;;14.43;8.03;;;;;;;;;;6211382;23;20151;-90
2021/04/17 15:55:16;;;;;;;19.37;8.80;;;;;;;;;;6207754;23;20570;-88
2021/04/17 19:25:12;;;;;;;21.58;8.85;;;;;;;;;;5534482;22;15064502;-85
2021/04/17 19:28:17;;;;;;;24.87;11.67;;;;;;;;;;6104777;23;20692;-85
2021/04/17 19:31:22;;;;;;;23.83;11.77;;;;;;;;;;6104224;23;20313;-85
2021/04/17 19:34:28;;;;;;;23.03;11.97;;;;;;;;;;6103282;23;20177;-85
2021/04/17 19:37:33;;;;;;;25.67;12.93;;;;;;;;;;6083225;23;20229;-85
2021/04/17 19:40:39;;;;;;;27.07;13.03;;;;;;;;;;6075682;23;20468;-85
2021/04/17 19:43:43;;;;;;;28.20;13.77;;;;;;;;;;6074847;23;20251;-85
2021/04/17 19:46:48;;;;;;;26.60;13.57;;;;;;;;;;6074111;23;20173;-85
2021/04/17 19:49:53;;;;;;;27.20;13.37;;;;;;;;;;6074233;23;20427;-84
2021/04/17 19:52:59;;;;;;;25.87;13.33;;;;;;;;;;6074949;23;20235;-84
2021/04/17 19:56:06;;;;;;;30.07;13.63;;;;;;;;;;6075270;23;20194;-85
2021/04/17 19:59:12;;;;;;;26.23;13.40;;;;;;;;;;6075526;23;20210;-85
2021/04/17 20:02:17;;;;;;;26.80;13.83;;;;;;;;;;6075572;23;20199;-84
2021/04/17 20:05:22;;;;;;;28.07;13.20;;;;;;;;;;6075266;23;20175;-85
2021/04/17 20:08:26;;;;;;;25.30;13.50;;;;;;;;;;6074665;23;20258;-86
2021/04/17 22:03:19;;;;;;;29.27;12.87;;;;;;;;;;6055255;23;20195;-91
2021/04/17 22:06:33;;;;;;;26.13;12.50;;;;;;;;;;6055655;23;20247;-90
2021/04/17 22:09:38;;;;;;;29.30;13.20;;;;;;;;;;6054108;23;20208;-89
2021/04/17 22:12:43;;;;;;;27.57;13.40;;;;;;;;;;6054956;23;20174;-91
2021/04/17 22:15:48;;;;;;;27.70;13.30;;;;;;;;;;6055204;23;20223;-91
2021/04/17 22:18:54;;;;;;;23.13;13.00;;;;;;;;;;6055475;23;20174;-92
2021/04/17 22:22:00;;;;;;;26.50;12.87;;;;;;;;;;6053586;23;20443;-91
2021/04/17 22:25:05;;;;;;;23.33;12.20;;;;;;;;;;6053297;23;20216;-89
2021/04/17 22:28:11;;;;;;;26.10;12.37;;;;;;;;;;6056836;23;20171;-91
2021/04/17 22:31:17;;;;;;;24.47;12.60;;;;;;;;;;6052695;23;20248;-90
2021/04/17 22:34:22;;;;;;;22.33;11.87;;;;;;;;;;6056133;23;20175;-90
2021/04/17 22:37:28;;;;;;;29.13;12.63;;;;;;;;;;6050031;23;20186;-90
2021/04/17 22:40:32;;;;;;;24.70;12.50;;;;;;;;;;6054237;23;20172;-88
2021/04/17 22:43:37;;;;;;;26.27;13.07;;;;;;;;;;6049467;23;20201;-91
2021/04/17 22:46:42;;;;;;;28.63;13.07;;;;;;;;;;6049351;23;20179;-91
2021/04/17 22:49:50;;;;;;;26.03;13.00;;;;;;;;;;6050007;23;20178;-89
2021/04/17 22:52:55;;;;;;;26.40;13.30;;;;;;;;;;6049841;23;20221;-91
2021/04/17 22:55:59;;;;;;;26.80;13.60;;;;;;;;;;6051070;23;20178;-90
2021/04/17 22:59:04;;;;;;;24.70;13.77;;;;;;;;;;6049370;23;20176;-89
2021/04/17 23:02:09;;;;;;;24.03;12.07;;;;;;;;;;6050188;23;20221;-90
2021/04/17 23:05:15;;;;;;;29.90;13.37;;;;;;;;;;6048808;23;20203;-90
2021/04/17 23:08:19;;;;;;;29.37;13.33;;;;;;;;;;6049092;23;20178;-89
2021/04/17 23:11:24;;;;;;;25.77;13.30;;;;;;;;;;6049521;23;20174;-90
2021/04/17 23:14:28;;;;;;;29.23;13.33;;;;;;;;;;6050018;23;20170;-91
2021/04/17 23:17:33;;;;;;;23.57;13.13;;;;;;;;;;6049176;23;20224;-92
2021/04/17 23:20:38;;;;;;;26.23;13.77;;;;;;;;;;6049758;23;20200;-91
2021/04/17 23:23:43;;;;;;;24.17;12.37;;;;;;;;;;6048842;23;20290;-91
2021/04/17 23:26:47;;;;;;;23.53;12.87;;;;;;;;;;6049102;23;20220;-92
2021/04/17 23:29:51;;;;;;;23.40;12.63;;;;;;;;;;6048723;23;20174;-90
2021/04/17 23:32:56;;;;;;;23.53;12.10;;;;;;;;;;6047481;23;20192;-90
2021/04/17 23:36:01;;;;;;;22.17;11.90;;;;;;;;;;6048419;23;20171;-91
2021/04/17 23:39:07;;;;;;;23.50;11.80;;;;;;;;;;6048908;23;20282;-91
2021/04/17 23:42:11;;;;;;;18.03;11.10;;;;;;;;;;6049066;23;20248;-91
2021/04/17 23:45:16;;;;;;;20.73;11.37;;;;;;;;;;6048520;23;20175;-90